Nikol'Sk, Russia
Current Conditions -  °F | °C
As of 4:00 PM on Saturday 25 Oct 2014 (Local Time) from UWGG Reporting Station
Clear Clear  
Wind Chill: 17°   Ceiling: Unl
Heat Index: 25°   Visibility: 6mi
Dew Point: 14°   Wind: 7mph
Humidity: 64%   Direction: 320°NW
Pressure: 30.59"   Gusts: NA
Location:  59.53°N, 45.47°E
Report Text: UWGG 251300Z 32003MPS CAVOK M04/M10 Q1036 NOSIG 36820050 RMKQFE769
Loading
Personal Weather Stations






























Interactive Weather Map
Tropical Storm Tracking
New forecast layout! Learn more

10-Day Weather Forecast

Advertisements
Track Severe Weather on mobile